Lavaca Bay — WDF2105 — position and weather

sailwx.info

Track history (hours):
 
Tides and Currents Weather Stations Pressure Air Temp Water Temp Dewpoint Dewpoint Depression Visibility Wind Speed Wind Dir Waves Ship Positions

Lavaca Bay

Owner: Higman Barge Lines, Inc, Orange, TX. More information available from US FCC via Universal Licensing System and Coast Guard Vessel Documentation Center.

Last reported at 2017-Mar-30 08:15 UTC. Time now 2017-Mar-31 00:26 UTC.
Position N 29°43' W 095°15'.

Length 24 m; draft 3 m.

Type: Towing. MMSI: 367424940.

Date/timePositionNaut miles runAvg speedWind from/ knotsBaromVisibWave heightAir tempDewpointWater temp
2017-Mar-30 08:15N 29°43' W 095°15'0 0.0
2017-Mar-30 07:33N 29°43' W 095°15'0 0.0
2017-Mar-30 06:33N 29°43' W 095°15'0 0.0
2017-Mar-30 05:33N 29°43' W 095°15'0 0.1
2017-Mar-30 04:32N 29°43' W 095°15'3 2.5
2017-Mar-30 03:25N 29°44' W 095°12'5 6.0
2017-Mar-30 02:31N 29°45' W 095°06'6 6.0
2017-Mar-30 01:33N 29°42' W 095°00'8 7.8
2017-Mar-30 00:33N 29°35' W 094°56'8 8.4
2017-Mar-29 23:33N 29°28' W 094°51'  
2017-Mar-26 20:33N 30°04' W 093°42'6 5.9
2017-Mar-26 19:33N 30°04' W 093°35'4 4.4
2017-Mar-26 18:33N 30°04' W 093°30'5 4.9
2017-Mar-26 17:33N 30°04' W 093°24'3 3.4
2017-Mar-26 16:33N 30°05' W 093°20'3 2.6
2017-Mar-26 15:33N 30°05' W 093°18'1 1.2
2017-Mar-26 14:33N 30°04' W 093°16'0 0.0
2017-Mar-26 13:33N 30°04' W 093°16'0 0.0
2017-Mar-26 12:33N 30°04' W 093°16'0 0.0
2017-Mar-26 11:33N 30°04' W 093°16'0 0.0
2017-Mar-26 10:33N 30°04' W 093°16'2 1.6
2017-Mar-26 09:33N 30°03' W 093°16'0 0.5
2017-Mar-26 08:33N 30°02' W 093°16'0 0.0
2017-Mar-26 07:33N 30°02' W 093°16'0 0.3
2017-Mar-26 06:33N 30°02' W 093°15'3 2.9
2017-Mar-26 05:33N 29°60' W 093°13'3 3.3
2017-Mar-26 04:33N 29°57' W 093°11'4 3.7
2017-Mar-26 03:33N 29°56' W 093°07'32 4.6
2017-Mar-25 20:31N 29°54' W 092°30'4 4.7
2017-Mar-25 19:33N 29°53' W 092°25'4 3.6
2017-Mar-25 18:33N 29°51' W 092°21'4 4.1
2017-Mar-25 17:33N 29°49' W 092°17'4 3.7
2017-Mar-25 16:33N 29°48' W 092°13'2 1.8
2017-Mar-25 15:33N 29°47' W 092°11'0 0.2
2017-Mar-25 14:33N 29°47' W 092°11'0 0.0
2017-Mar-25 13:33N 29°47' W 092°11'0 0.1
2017-Mar-25 12:33N 29°47' W 092°11'1 1.0
2017-Mar-25 11:33N 29°47' W 092°10'4 4.3
2017-Mar-25 10:33N 29°48' W 092°05'1 1.1
2017-Mar-25 09:33N 29°48' W 092°04'3 3.1
2017-Mar-25 08:33N 29°50' W 092°01'4 3.5
2017-Mar-25 07:33N 29°51' W 091°57'52 4.2
2017-Mar-24 19:06N 29°37' W 090°59'3 5.2
2017-Mar-24 18:27N 29°34' W 090°57'5 5.7
2017-Mar-24 17:33N 29°32' W 090°51'5 5.3
2017-Mar-24 16:33N 29°33' W 090°45'4 3.9
2017-Mar-24 15:33N 29°36' W 090°43'4 3.9
2017-Mar-24 14:33N 29°35' W 090°38'5 4.9
2017-Mar-24 13:33N 29°34' W 090°33'36 1.3
2017-Mar-23 10:08N 29°56' W 090°00'0 0.0
2017-Mar-23 08:30N 29°56' W 090°00'0 0.0
2017-Mar-23 07:33N 29°56' W 090°00'0 0.0
2017-Mar-23 06:33N 29°56' W 090°00'  
2017-Mar-20 08:16N 29°57' W 090°23'  
Track history (hours):
 
Tides and Currents Weather Stations Pressure Air Temp Water Temp Dewpoint Dewpoint Depression Visibility Wind Speed Wind Dir Waves Ship Positions

Lavaca Bay

Owner: Higman Barge Lines, Inc, Orange, TX. More information available from US FCC via Universal Licensing System and Coast Guard Vessel Documentation Center.

Last reported at 2017-Mar-30 08:15 UTC. Time now 2017-Mar-31 00:26 UTC.
Position N 29°43' W 095°15'.

Length 24 m; draft 3 m.

Type: Towing. MMSI: 367424940.

Date/timePositionNaut miles runAvg speedWind from/ knotsBaromVisibWave heightAir tempDewpointWater temp
2017-Mar-30 08:15N 29°43' W 095°15'0 0.0
2017-Mar-30 07:33N 29°43' W 095°15'0 0.0
2017-Mar-30 06:33N 29°43' W 095°15'0 0.0
2017-Mar-30 05:33N 29°43' W 095°15'0 0.1
2017-Mar-30 04:32N 29°43' W 095°15'3 2.5
2017-Mar-30 03:25N 29°44' W 095°12'5 6.0
2017-Mar-30 02:31N 29°45' W 095°06'6 6.0
2017-Mar-30 01:33N 29°42' W 095°00'8 7.8
2017-Mar-30 00:33N 29°35' W 094°56'8 8.4
2017-Mar-29 23:33N 29°28' W 094°51'  
2017-Mar-26 20:33N 30°04' W 093°42'6 5.9
2017-Mar-26 19:33N 30°04' W 093°35'4 4.4
2017-Mar-26 18:33N 30°04' W 093°30'5 4.9
2017-Mar-26 17:33N 30°04' W 093°24'3 3.4
2017-Mar-26 16:33N 30°05' W 093°20'3 2.6
2017-Mar-26 15:33N 30°05' W 093°18'1 1.2
2017-Mar-26 14:33N 30°04' W 093°16'0 0.0
2017-Mar-26 13:33N 30°04' W 093°16'0 0.0
2017-Mar-26 12:33N 30°04' W 093°16'0 0.0
2017-Mar-26 11:33N 30°04' W 093°16'0 0.0
2017-Mar-26 10:33N 30°04' W 093°16'2 1.6
2017-Mar-26 09:33N 30°03' W 093°16'0 0.5
2017-Mar-26 08:33N 30°02' W 093°16'0 0.0
2017-Mar-26 07:33N 30°02' W 093°16'0 0.3
2017-Mar-26 06:33N 30°02' W 093°15'3 2.9
2017-Mar-26 05:33N 29°60' W 093°13'3 3.3
2017-Mar-26 04:33N 29°57' W 093°11'4 3.7
2017-Mar-26 03:33N 29°56' W 093°07'32 4.6
2017-Mar-25 20:31N 29°54' W 092°30'4 4.7
2017-Mar-25 19:33N 29°53' W 092°25'4 3.6
2017-Mar-25 18:33N 29°51' W 092°21'4 4.1
2017-Mar-25 17:33N 29°49' W 092°17'4 3.7
2017-Mar-25 16:33N 29°48' W 092°13'2 1.8
2017-Mar-25 15:33N 29°47' W 092°11'0 0.2
2017-Mar-25 14:33N 29°47' W 092°11'0 0.0
2017-Mar-25 13:33N 29°47' W 092°11'0 0.1
2017-Mar-25 12:33N 29°47' W 092°11'1 1.0
2017-Mar-25 11:33N 29°47' W 092°10'4 4.3
2017-Mar-25 10:33N 29°48' W 092°05'1 1.1
2017-Mar-25 09:33N 29°48' W 092°04'3 3.1
2017-Mar-25 08:33N 29°50' W 092°01'4 3.5
2017-Mar-25 07:33N 29°51' W 091°57'52 4.2
2017-Mar-24 19:06N 29°37' W 090°59'3 5.2
2017-Mar-24 18:27N 29°34' W 090°57'5 5.7
2017-Mar-24 17:33N 29°32' W 090°51'5 5.3
2017-Mar-24 16:33N 29°33' W 090°45'4 3.9
2017-Mar-24 15:33N 29°36' W 090°43'4 3.9
2017-Mar-24 14:33N 29°35' W 090°38'5 4.9
2017-Mar-24 13:33N 29°34' W 090°33'36 1.3
2017-Mar-23 10:08N 29°56' W 090°00'0 0.0
2017-Mar-23 08:30N 29°56' W 090°00'0 0.0
2017-Mar-23 07:33N 29°56' W 090°00'0 0.0
2017-Mar-23 06:33N 29°56' W 090°00'  
2017-Mar-20 08:16N 29°57' W 090°23'  

Dump ship's entire track history